North Chicago, IL (60064)

6:14 AM CST on January 23, 2018 (GMT -0600)
NE North Chicago | | Change Station

Elev 656 ft 42.34 °N, 87.84 °W | Updated 15 seconds ago

Snow
Snow
30.7 °F
Feels Like 25 °F
N
6.0
Wind Variable Wind from West

Today
High -- | Low -- °F
--% Chance of Precip.
Yesterday
High -- | Low -- °F
Precip. -- in
Pressure 29.62 in
Visibility 2.5 miles
Clouds Scattered Clouds 800 ft
Overcast 4900 ft
Windchill 25 °F
Dew Point 30 °F
Humidity 98%
Rainfall 0.05 in
Snow Depth Not available.
7:12 AM 4:54 PM
Waxing Crescent, 35% visible
METAR KUGN 231155Z AUTO 32006KT 2 1/2SM -SN BR SCT008 OVC049 M01/M02 A2960 RMK AO2 SLP031 P0001 60022 70087 T10111022 10022 21011 51025
Pressure 29.62 in
Visibility 2.5 miles
Clouds Scattered Clouds 800 ft
Overcast 4900 ft
Windchill 25 °F
Dew Point 30 °F
Humidity 98%
Rainfall 0.05 in
Snow Depth Not available.
7:12 AM 4:54 PM
Waxing Crescent, 35% visible
METAR KUGN 231155Z AUTO 32006KT 2 1/2SM -SN BR SCT008 OVC049 M01/M02 A2960 RMK AO2 SLP031 P0001 60022 70087 T10111022 10022 21011 51025

Get Severe Weather Alerts

Thanks for signing up!

Be on the lookout for a verification email in your inbox.

You'll start receiving the daily forecast at 6 AM.

×

10-Day Weather Forecast

Almanac

Astronomy

Jan. 23, 2018 Rise Set
Actual Time
Civil Twilight
Nautical Twilight
Astronomical Twilight
Moon
Length of Visible Light
Length of Day
Tomorrow will be .
, % of the Moon is Illuminated

Today's Extremes

State Highs State Lows

Community

WunderPhotos

Category 6

Welcome to Category 6. This is the collective home for Weather Underground's featured writeups by Dr. Jeff Masters (right), Bob Henson (left), Chris Burt, and other regular contributors.

Nearby

Air Quality

  Air Quality AQ Index Pollutant
Not available.

Snow Depth

Station Depth Elevation

Earthquake Activity

City Distance Mag. Time & Date
Minimum magnitude displayed is 2.5.

Coastal Water Temperatures

Place Temperature

Stations

Nearby Weather Stations

Station Location Temp. Windchill Dew Point Humidity Wind Precip. Elev Updated Type
                   

Watches & Warnings

There are currently no watches in effect.